sensor_id;sensor_type;location;lat;lon;timestamp;P1;durP1;ratioP1;P2;durP2;ratioP2
25581;SDS011;13462;50.764;4.332;2024-01-30T00:01:37;8.68;;;6.53;;
25581;SDS011;13462;50.764;4.332;2024-01-30T00:04:02;11.43;;;6.38;;
25581;SDS011;13462;50.764;4.332;2024-01-30T00:06:28;11.15;;;6.57;;
25581;SDS011;13462;50.764;4.332;2024-01-30T00:08:54;9.85;;;6.93;;
25581;SDS011;13462;50.764;4.332;2024-01-30T00:11:19;11.98;;;7.05;;
25581;SDS011;13462;50.764;4.332;2024-01-30T00:13:46;12.27;;;6.68;;
25581;SDS011;13462;50.764;4.332;2024-01-30T00:16:21;9.52;;;6.85;;
25581;SDS011;13462;50.764;4.332;2024-01-30T00:18:47;9.38;;;5.93;;
25581;SDS011;13462;50.764;4.332;2024-01-30T00:21:13;8.60;;;6.35;;
25581;SDS011;13462;50.764;4.332;2024-01-30T00:23:39;10.98;;;6.25;;
25581;SDS011;13462;50.764;4.332;2024-01-30T00:26:04;9.57;;;6.53;;
25581;SDS011;13462;50.764;4.332;2024-01-30T00:28:31;10.23;;;6.05;;
25581;SDS011;13462;50.764;4.332;2024-01-30T00:30:56;9.65;;;6.45;;
25581;SDS011;13462;50.764;4.332;2024-01-30T00:33:22;9.68;;;6.35;;
25581;SDS011;13462;50.764;4.332;2024-01-30T00:35:47;10.43;;;6.72;;
25581;SDS011;13462;50.764;4.332;2024-01-30T00:38:13;9.70;;;6.25;;
25581;SDS011;13462;50.764;4.332;2024-01-30T00:40:39;9.73;;;5.97;;
25581;SDS011;13462;50.764;4.332;2024-01-30T00:43:04;9.95;;;5.90;;
25581;SDS011;13462;50.764;4.332;2024-01-30T00:45:30;11.15;;;6.57;;
25581;SDS011;13462;50.764;4.332;2024-01-30T00:47:56;10.48;;;5.90;;
25581;SDS011;13462;50.764;4.332;2024-01-30T00:50:21;9.30;;;6.30;;
25581;SDS011;13462;50.764;4.332;2024-01-30T00:52:47;11.65;;;6.38;;
25581;SDS011;13462;50.764;4.332;2024-01-30T00:55:13;10.35;;;5.97;;
25581;SDS011;13462;50.764;4.332;2024-01-30T00:57:39;11.13;;;6.80;;
25581;SDS011;13462;50.764;4.332;2024-01-30T01:00:05;8.98;;;5.95;;
25581;SDS011;13462;50.764;4.332;2024-01-30T01:02:34;9.85;;;5.85;;
25581;SDS011;13462;50.764;4.332;2024-01-30T01:05:02;9.82;;;6.35;;
25581;SDS011;13462;50.764;4.332;2024-01-30T01:07:28;7.57;;;5.97;;
25581;SDS011;13462;50.764;4.332;2024-01-30T01:09:54;9.23;;;6.38;;
25581;SDS011;13462;50.764;4.332;2024-01-30T01:12:19;9.48;;;5.47;;
25581;SDS011;13462;50.764;4.332;2024-01-30T01:14:45;7.80;;;5.85;;
25581;SDS011;13462;50.764;4.332;2024-01-30T01:17:11;10.50;;;6.28;;
25581;SDS011;13462;50.764;4.332;2024-01-30T01:19:37;10.15;;;5.93;;
25581;SDS011;13462;50.764;4.332;2024-01-30T01:22:02;10.15;;;6.10;;
25581;SDS011;13462;50.764;4.332;2024-01-30T01:24:29;11.45;;;5.80;;
25581;SDS011;13462;50.764;4.332;2024-01-30T01:26:56;10.43;;;5.85;;
25581;SDS011;13462;50.764;4.332;2024-01-30T01:29:23;9.48;;;6.22;;
25581;SDS011;13462;50.764;4.332;2024-01-30T01:31:53;7.85;;;5.40;;
25581;SDS011;13462;50.764;4.332;2024-01-30T01:34:22;9.88;;;6.00;;
25581;SDS011;13462;50.764;4.332;2024-01-30T01:36:50;9.45;;;6.25;;
25581;SDS011;13462;50.764;4.332;2024-01-30T01:39:16;9.55;;;5.90;;
25581;SDS011;13462;50.764;4.332;2024-01-30T01:41:42;7.30;;;5.45;;
25581;SDS011;13462;50.764;4.332;2024-01-30T01:44:08;8.85;;;5.60;;
25581;SDS011;13462;50.764;4.332;2024-01-30T01:46:34;8.77;;;6.43;;
25581;SDS011;13462;50.764;4.332;2024-01-30T01:49:01;8.05;;;5.85;;
25581;SDS011;13462;50.764;4.332;2024-01-30T01:51:29;9.88;;;5.32;;
25581;SDS011;13462;50.764;4.332;2024-01-30T01:53:56;10.82;;;6.40;;
25581;SDS011;13462;50.764;4.332;2024-01-30T01:56:25;8.20;;;6.25;;
25581;SDS011;13462;50.764;4.332;2024-01-30T01:58:54;8.35;;;5.07;;
25581;SDS011;13462;50.764;4.332;2024-01-30T02:01:20;8.20;;;5.93;;
25581;SDS011;13462;50.764;4.332;2024-01-30T02:03:46;10.50;;;4.93;;
25581;SDS011;13462;50.764;4.332;2024-01-30T02:06:13;7.53;;;6.10;;
25581;SDS011;13462;50.764;4.332;2024-01-30T02:08:40;8.10;;;6.10;;
25581;SDS011;13462;50.764;4.332;2024-01-30T02:11:06;9.20;;;5.78;;
25581;SDS011;13462;50.764;4.332;2024-01-30T02:13:32;9.05;;;5.70;;
25581;SDS011;13462;50.764;4.332;2024-01-30T02:15:57;6.75;;;5.22;;
25581;SDS011;13462;50.764;4.332;2024-01-30T02:18:23;10.95;;;5.35;;
25581;SDS011;13462;50.764;4.332;2024-01-30T02:20:48;9.50;;;5.78;;
25581;SDS011;13462;50.764;4.332;2024-01-30T02:23:18;6.47;;;5.10;;
25581;SDS011;13462;50.764;4.332;2024-01-30T02:25:45;8.75;;;5.90;;
25581;SDS011;13462;50.764;4.332;2024-01-30T02:28:14;7.63;;;5.45;;
25581;SDS011;13462;50.764;4.332;2024-01-30T02:30:40;9.55;;;5.50;;
25581;SDS011;13462;50.764;4.332;2024-01-30T02:33:07;12.50;;;6.50;;
25581;SDS011;13462;50.764;4.332;2024-01-30T02:35:33;8.13;;;5.25;;
25581;SDS011;13462;50.764;4.332;2024-01-30T02:37:59;10.57;;;5.50;;
25581;SDS011;13462;50.764;4.332;2024-01-30T02:40:24;9.00;;;5.50;;
25581;SDS011;13462;50.764;4.332;2024-01-30T02:42:50;8.43;;;5.78;;
25581;SDS011;13462;50.764;4.332;2024-01-30T02:45:16;10.48;;;5.50;;
25581;SDS011;13462;50.764;4.332;2024-01-30T02:47:42;9.88;;;5.78;;
25581;SDS011;13462;50.764;4.332;2024-01-30T02:50:08;7.55;;;5.20;;
25581;SDS011;13462;50.764;4.332;2024-01-30T02:52:33;8.70;;;5.78;;
25581;SDS011;13462;50.764;4.332;2024-01-30T02:54:59;10.68;;;6.47;;
25581;SDS011;13462;50.764;4.332;2024-01-30T02:57:25;8.10;;;5.70;;
25581;SDS011;13462;50.764;4.332;2024-01-30T02:59:51;7.70;;;5.88;;
25581;SDS011;13462;50.764;4.332;2024-01-30T03:02:16;8.18;;;5.32;;
25581;SDS011;13462;50.764;4.332;2024-01-30T03:04:42;10.90;;;6.43;;
25581;SDS011;13462;50.764;4.332;2024-01-30T03:07:08;9.18;;;5.07;;
25581;SDS011;13462;50.764;4.332;2024-01-30T03:09:33;8.60;;;5.82;;
25581;SDS011;13462;50.764;4.332;2024-01-30T03:11:59;8.52;;;5.60;;
25581;SDS011;13462;50.764;4.332;2024-01-30T03:14:25;9.02;;;5.72;;
25581;SDS011;13462;50.764;4.332;2024-01-30T03:16:51;7.78;;;5.65;;
25581;SDS011;13462;50.764;4.332;2024-01-30T03:19:17;12.43;;;6.15;;
25581;SDS011;13462;50.764;4.332;2024-01-30T03:21:43;8.45;;;5.82;;
25581;SDS011;13462;50.764;4.332;2024-01-30T03:24:09;9.85;;;5.72;;
25581;SDS011;13462;50.764;4.332;2024-01-30T03:26:35;11.98;;;5.63;;
25581;SDS011;13462;50.764;4.332;2024-01-30T03:29:00;10.38;;;5.80;;
25581;SDS011;13462;50.764;4.332;2024-01-30T03:31:26;9.13;;;5.85;;
25581;SDS011;13462;50.764;4.332;2024-01-30T03:33:52;6.95;;;5.10;;
25581;SDS011;13462;50.764;4.332;2024-01-30T03:36:17;9.85;;;5.78;;
25581;SDS011;13462;50.764;4.332;2024-01-30T03:38:43;9.13;;;5.53;;
25581;SDS011;13462;50.764;4.332;2024-01-30T03:41:09;8.77;;;5.75;;
25581;SDS011;13462;50.764;4.332;2024-01-30T03:43:35;9.00;;;5.50;;
25581;SDS011;13462;50.764;4.332;2024-01-30T03:46:01;8.63;;;5.63;;
25581;SDS011;13462;50.764;4.332;2024-01-30T03:48:27;12.30;;;6.10;;
25581;SDS011;13462;50.764;4.332;2024-01-30T03:50:53;8.60;;;5.55;;
25581;SDS011;13462;50.764;4.332;2024-01-30T03:53:19;9.48;;;5.65;;
25581;SDS011;13462;50.764;4.332;2024-01-30T03:55:44;8.20;;;5.60;;
25581;SDS011;13462;50.764;4.332;2024-01-30T03:58:10;12.25;;;5.70;;
25581;SDS011;13462;50.764;4.332;2024-01-30T04:00:36;8.63;;;6.00;;
25581;SDS011;13462;50.764;4.332;2024-01-30T04:03:01;9.60;;;5.50;;
25581;SDS011;13462;50.764;4.332;2024-01-30T04:05:27;9.52;;;5.65;;
25581;SDS011;13462;50.764;4.332;2024-01-30T04:07:53;10.13;;;6.40;;
25581;SDS011;13462;50.764;4.332;2024-01-30T04:10:18;9.35;;;6.13;;
25581;SDS011;13462;50.764;4.332;2024-01-30T04:12:44;6.60;;;5.22;;
25581;SDS011;13462;50.764;4.332;2024-01-30T04:15:10;9.15;;;5.88;;
25581;SDS011;13462;50.764;4.332;2024-01-30T04:17:35;8.82;;;6.40;;
25581;SDS011;13462;50.764;4.332;2024-01-30T04:20:01;11.30;;;6.10;;
25581;SDS011;13462;50.764;4.332;2024-01-30T04:22:27;11.40;;;6.20;;
25581;SDS011;13462;50.764;4.332;2024-01-30T04:24:52;9.77;;;5.93;;
25581;SDS011;13462;50.764;4.332;2024-01-30T04:27:18;8.15;;;6.38;;
25581;SDS011;13462;50.764;4.332;2024-01-30T04:29:44;9.18;;;5.60;;
25581;SDS011;13462;50.764;4.332;2024-01-30T04:32:09;9.18;;;5.60;;
25581;SDS011;13462;50.764;4.332;2024-01-30T04:34:36;11.70;;;6.43;;
25581;SDS011;13462;50.764;4.332;2024-01-30T04:37:02;9.57;;;5.88;;
25581;SDS011;13462;50.764;4.332;2024-01-30T04:39:28;10.95;;;6.20;;
25581;SDS011;13462;50.764;4.332;2024-01-30T04:41:53;12.30;;;6.43;;
25581;SDS011;13462;50.764;4.332;2024-01-30T04:44:19;10.20;;;6.10;;
25581;SDS011;13462;50.764;4.332;2024-01-30T04:46:45;10.85;;;5.95;;
25581;SDS011;13462;50.764;4.332;2024-01-30T04:49:10;12.00;;;6.43;;
25581;SDS011;13462;50.764;4.332;2024-01-30T04:51:36;14.82;;;6.03;;
25581;SDS011;13462;50.764;4.332;2024-01-30T04:54:01;10.05;;;6.60;;
25581;SDS011;13462;50.764;4.332;2024-01-30T04:56:27;8.95;;;6.53;;
25581;SDS011;13462;50.764;4.332;2024-01-30T04:58:53;11.98;;;6.78;;
25581;SDS011;13462;50.764;4.332;2024-01-30T05:01:18;8.57;;;6.30;;
25581;SDS011;13462;50.764;4.332;2024-01-30T05:03:44;11.02;;;6.80;;
25581;SDS011;13462;50.764;4.332;2024-01-30T05:06:09;13.15;;;6.25;;
25581;SDS011;13462;50.764;4.332;2024-01-30T05:08:35;11.77;;;6.95;;
25581;SDS011;13462;50.764;4.332;2024-01-30T05:11:06;7.90;;;6.13;;
25581;SDS011;13462;50.764;4.332;2024-01-30T05:13:32;13.35;;;6.60;;
25581;SDS011;13462;50.764;4.332;2024-01-30T05:15:57;14.13;;;6.47;;
25581;SDS011;13462;50.764;4.332;2024-01-30T05:18:23;8.85;;;6.28;;
25581;SDS011;13462;50.764;4.332;2024-01-30T05:20:50;9.23;;;6.88;;
25581;SDS011;13462;50.764;4.332;2024-01-30T05:23:15;9.80;;;6.47;;
25581;SDS011;13462;50.764;4.332;2024-01-30T05:25:41;10.45;;;6.78;;
25581;SDS011;13462;50.764;4.332;2024-01-30T05:28:07;10.90;;;6.35;;
25581;SDS011;13462;50.764;4.332;2024-01-30T05:30:32;9.02;;;6.65;;
25581;SDS011;13462;50.764;4.332;2024-01-30T05:32:58;9.68;;;6.97;;
25581;SDS011;13462;50.764;4.332;2024-01-30T05:35:23;13.55;;;7.68;;
25581;SDS011;13462;50.764;4.332;2024-01-30T05:37:49;14.27;;;6.78;;
25581;SDS011;13462;50.764;4.332;2024-01-30T05:40:15;20.92;;;6.72;;
25581;SDS011;13462;50.764;4.332;2024-01-30T05:42:41;10.00;;;6.20;;
25581;SDS011;13462;50.764;4.332;2024-01-30T05:45:07;11.07;;;6.60;;
25581;SDS011;13462;50.764;4.332;2024-01-30T05:47:33;13.55;;;7.43;;
25581;SDS011;13462;50.764;4.332;2024-01-30T05:49:59;9.20;;;6.72;;
25581;SDS011;13462;50.764;4.332;2024-01-30T05:52:25;14.07;;;7.03;;
25581;SDS011;13462;50.764;4.332;2024-01-30T05:54:50;11.35;;;7.18;;
25581;SDS011;13462;50.764;4.332;2024-01-30T05:57:16;15.27;;;6.75;;
25581;SDS011;13462;50.764;4.332;2024-01-30T05:59:42;11.73;;;7.28;;
25581;SDS011;13462;50.764;4.332;2024-01-30T06:02:10;11.45;;;6.82;;
25581;SDS011;13462;50.764;4.332;2024-01-30T06:04:36;11.82;;;6.47;;
25581;SDS011;13462;50.764;4.332;2024-01-30T06:07:01;9.73;;;6.50;;
25581;SDS011;13462;50.764;4.332;2024-01-30T06:09:27;9.27;;;6.50;;
25581;SDS011;13462;50.764;4.332;2024-01-30T06:11:54;10.55;;;6.50;;
25581;SDS011;13462;50.764;4.332;2024-01-30T06:14:19;11.65;;;6.60;;
25581;SDS011;13462;50.764;4.332;2024-01-30T06:16:45;11.52;;;7.03;;
25581;SDS011;13462;50.764;4.332;2024-01-30T06:19:11;10.95;;;6.78;;
25581;SDS011;13462;50.764;4.332;2024-01-30T06:21:37;16.05;;;8.13;;
25581;SDS011;13462;50.764;4.332;2024-01-30T06:24:03;11.23;;;6.65;;
25581;SDS011;13462;50.764;4.332;2024-01-30T06:26:29;11.57;;;7.03;;
25581;SDS011;13462;50.764;4.332;2024-01-30T06:28:54;11.25;;;7.63;;
25581;SDS011;13462;50.764;4.332;2024-01-30T06:31:20;11.65;;;8.13;;
25581;SDS011;13462;50.764;4.332;2024-01-30T06:33:49;12.55;;;7.80;;
25581;SDS011;13462;50.764;4.332;2024-01-30T06:36:15;12.52;;;7.40;;
25581;SDS011;13462;50.764;4.332;2024-01-30T06:38:41;12.60;;;7.53;;
25581;SDS011;13462;50.764;4.332;2024-01-30T06:41:06;11.75;;;7.78;;
25581;SDS011;13462;50.764;4.332;2024-01-30T06:43:32;12.18;;;7.93;;
25581;SDS011;13462;50.764;4.332;2024-01-30T06:45:58;13.77;;;7.47;;
25581;SDS011;13462;50.764;4.332;2024-01-30T06:48:24;11.20;;;7.30;;
25581;SDS011;13462;50.764;4.332;2024-01-30T06:50:50;13.18;;;7.50;;
25581;SDS011;13462;50.764;4.332;2024-01-30T06:53:18;12.90;;;8.05;;
25581;SDS011;13462;50.764;4.332;2024-01-30T06:55:44;12.98;;;7.47;;
25581;SDS011;13462;50.764;4.332;2024-01-30T06:58:10;13.57;;;7.88;;
25581;SDS011;13462;50.764;4.332;2024-01-30T07:00:35;11.60;;;6.80;;
25581;SDS011;13462;50.764;4.332;2024-01-30T07:03:01;13.13;;;8.40;;
25581;SDS011;13462;50.764;4.332;2024-01-30T07:05:27;12.70;;;7.78;;
25581;SDS011;13462;50.764;4.332;2024-01-30T07:07:52;12.65;;;8.48;;
25581;SDS011;13462;50.764;4.332;2024-01-30T07:10:18;12.70;;;7.28;;
25581;SDS011;13462;50.764;4.332;2024-01-30T07:12:44;13.02;;;7.47;;
25581;SDS011;13462;50.764;4.332;2024-01-30T07:15:09;12.75;;;6.75;;
25581;SDS011;13462;50.764;4.332;2024-01-30T07:17:35;13.13;;;8.25;;
25581;SDS011;13462;50.764;4.332;2024-01-30T07:20:01;11.85;;;7.28;;
25581;SDS011;13462;50.764;4.332;2024-01-30T07:22:28;13.43;;;7.30;;
25581;SDS011;13462;50.764;4.332;2024-01-30T07:24:55;15.50;;;7.05;;
25581;SDS011;13462;50.764;4.332;2024-01-30T07:27:21;16.10;;;7.28;;
25581;SDS011;13462;50.764;4.332;2024-01-30T07:29:46;14.80;;;7.90;;
25581;SDS011;13462;50.764;4.332;2024-01-30T07:32:12;13.75;;;7.70;;
25581;SDS011;13462;50.764;4.332;2024-01-30T07:34:37;17.55;;;7.30;;
25581;SDS011;13462;50.764;4.332;2024-01-30T07:37:03;13.02;;;7.22;;
25581;SDS011;13462;50.764;4.332;2024-01-30T07:39:29;16.27;;;7.63;;
25581;SDS011;13462;50.764;4.332;2024-01-30T07:41:54;14.50;;;7.20;;
25581;SDS011;13462;50.764;4.332;2024-01-30T07:44:20;15.07;;;7.53;;
25581;SDS011;13462;50.764;4.332;2024-01-30T07:46:46;16.77;;;8.35;;
25581;SDS011;13462;50.764;4.332;2024-01-30T07:49:11;21.92;;;9.15;;
25581;SDS011;13462;50.764;4.332;2024-01-30T07:51:39;13.32;;;7.35;;
25581;SDS011;13462;50.764;4.332;2024-01-30T07:54:13;12.23;;;7.22;;
25581;SDS011;13462;50.764;4.332;2024-01-30T07:56:39;16.80;;;7.75;;
25581;SDS011;13462;50.764;4.332;2024-01-30T07:59:04;13.73;;;7.65;;
25581;SDS011;13462;50.764;4.332;2024-01-30T08:01:30;18.00;;;8.10;;
25581;SDS011;13462;50.764;4.332;2024-01-30T08:03:56;14.77;;;8.00;;
25581;SDS011;13462;50.764;4.332;2024-01-30T08:06:21;14.43;;;7.65;;
25581;SDS011;13462;50.764;4.332;2024-01-30T08:08:47;16.63;;;8.93;;
25581;SDS011;13462;50.764;4.332;2024-01-30T08:11:13;19.20;;;8.85;;
25581;SDS011;13462;50.764;4.332;2024-01-30T08:13:38;14.85;;;8.43;;
25581;SDS011;13462;50.764;4.332;2024-01-30T08:16:04;13.60;;;8.30;;
25581;SDS011;13462;50.764;4.332;2024-01-30T08:18:30;18.30;;;8.57;;
25581;SDS011;13462;50.764;4.332;2024-01-30T08:20:56;22.35;;;7.93;;
25581;SDS011;13462;50.764;4.332;2024-01-30T08:23:22;15.38;;;8.48;;
25581;SDS011;13462;50.764;4.332;2024-01-30T08:25:48;15.70;;;8.25;;
25581;SDS011;13462;50.764;4.332;2024-01-30T08:28:14;13.90;;;8.60;;
25581;SDS011;13462;50.764;4.332;2024-01-30T08:30:39;18.05;;;8.65;;
25581;SDS011;13462;50.764;4.332;2024-01-30T08:33:05;16.55;;;8.40;;
25581;SDS011;13462;50.764;4.332;2024-01-30T08:35:31;15.10;;;7.72;;
25581;SDS011;13462;50.764;4.332;2024-01-30T08:37:58;15.07;;;8.60;;
25581;SDS011;13462;50.764;4.332;2024-01-30T08:40:24;14.80;;;8.07;;
25581;SDS011;13462;50.764;4.332;2024-01-30T08:42:50;20.58;;;9.27;;
25581;SDS011;13462;50.764;4.332;2024-01-30T08:45:16;15.23;;;8.00;;
25581;SDS011;13462;50.764;4.332;2024-01-30T08:47:41;15.70;;;8.77;;
25581;SDS011;13462;50.764;4.332;2024-01-30T08:50:07;13.77;;;8.23;;
25581;SDS011;13462;50.764;4.332;2024-01-30T08:52:33;17.33;;;7.88;;
25581;SDS011;13462;50.764;4.332;2024-01-30T08:54:59;14.57;;;8.38;;
25581;SDS011;13462;50.764;4.332;2024-01-30T08:57:25;15.27;;;8.60;;
25581;SDS011;13462;50.764;4.332;2024-01-30T08:59:53;16.08;;;9.85;;
25581;SDS011;13462;50.764;4.332;2024-01-30T09:02:20;18.10;;;8.50;;
25581;SDS011;13462;50.764;4.332;2024-01-30T09:04:46;18.25;;;8.23;;
25581;SDS011;13462;50.764;4.332;2024-01-30T09:07:11;14.50;;;8.38;;
25581;SDS011;13462;50.764;4.332;2024-01-30T09:09:38;16.02;;;8.65;;
25581;SDS011;13462;50.764;4.332;2024-01-30T09:12:06;18.83;;;9.45;;
25581;SDS011;13462;50.764;4.332;2024-01-30T09:14:34;15.73;;;8.93;;
25581;SDS011;13462;50.764;4.332;2024-01-30T09:17:00;19.17;;;9.07;;
25581;SDS011;13462;50.764;4.332;2024-01-30T09:19:28;18.08;;;8.85;;
25581;SDS011;13462;50.764;4.332;2024-01-30T09:21:53;18.23;;;10.20;;
25581;SDS011;13462;50.764;4.332;2024-01-30T09:24:19;19.48;;;9.35;;
25581;SDS011;13462;50.764;4.332;2024-01-30T09:26:45;19.92;;;9.48;;
25581;SDS011;13462;50.764;4.332;2024-01-30T09:29:10;17.33;;;9.02;;
25581;SDS011;13462;50.764;4.332;2024-01-30T09:31:36;19.83;;;10.27;;
25581;SDS011;13462;50.764;4.332;2024-01-30T09:34:01;20.42;;;9.02;;
25581;SDS011;13462;50.764;4.332;2024-01-30T09:36:27;20.10;;;10.02;;
25581;SDS011;13462;50.764;4.332;2024-01-30T09:38:53;19.75;;;9.43;;
25581;SDS011;13462;50.764;4.332;2024-01-30T09:41:18;18.63;;;9.50;;
25581;SDS011;13462;50.764;4.332;2024-01-30T09:43:46;24.13;;;10.70;;
25581;SDS011;13462;50.764;4.332;2024-01-30T09:46:16;22.52;;;10.30;;
25581;SDS011;13462;50.764;4.332;2024-01-30T09:48:44;19.88;;;10.70;;
25581;SDS011;13462;50.764;4.332;2024-01-30T09:51:11;20.95;;;10.65;;
25581;SDS011;13462;50.764;4.332;2024-01-30T09:53:40;22.38;;;11.70;;
25581;SDS011;13462;50.764;4.332;2024-01-30T09:56:07;18.92;;;10.57;;
25581;SDS011;13462;50.764;4.332;2024-01-30T09:58:32;26.27;;;10.75;;
25581;SDS011;13462;50.764;4.332;2024-01-30T10:00:58;20.63;;;10.52;;
25581;SDS011;13462;50.764;4.332;2024-01-30T10:03:24;24.45;;;11.10;;
25581;SDS011;13462;50.764;4.332;2024-01-30T10:05:51;19.45;;;11.02;;
25581;SDS011;13462;50.764;4.332;2024-01-30T10:08:19;21.70;;;10.48;;
25581;SDS011;13462;50.764;4.332;2024-01-30T10:10:46;16.75;;;10.82;;
25581;SDS011;13462;50.764;4.332;2024-01-30T10:13:12;22.02;;;11.02;;
25581;SDS011;13462;50.764;4.332;2024-01-30T10:15:38;23.48;;;10.93;;
25581;SDS011;13462;50.764;4.332;2024-01-30T10:18:04;25.80;;;11.98;;
25581;SDS011;13462;50.764;4.332;2024-01-30T10:20:32;21.77;;;10.63;;
25581;SDS011;13462;50.764;4.332;2024-01-30T10:22:59;20.27;;;12.13;;
25581;SDS011;13462;50.764;4.332;2024-01-30T10:25:25;25.45;;;11.65;;
25581;SDS011;13462;50.764;4.332;2024-01-30T10:27:54;24.63;;;11.60;;
25581;SDS011;13462;50.764;4.332;2024-01-30T10:30:21;21.67;;;12.88;;
25581;SDS011;13462;50.764;4.332;2024-01-30T10:32:47;23.02;;;12.25;;
25581;SDS011;13462;50.764;4.332;2024-01-30T10:35:12;23.13;;;12.43;;
25581;SDS011;13462;50.764;4.332;2024-01-30T10:37:38;22.67;;;11.15;;
25581;SDS011;13462;50.764;4.332;2024-01-30T10:40:04;24.55;;;13.43;;
25581;SDS011;13462;50.764;4.332;2024-01-30T10:42:31;22.10;;;12.15;;
25581;SDS011;13462;50.764;4.332;2024-01-30T10:45:07;21.80;;;11.85;;
25581;SDS011;13462;50.764;4.332;2024-01-30T10:47:34;22.52;;;12.25;;
25581;SDS011;13462;50.764;4.332;2024-01-30T10:50:03;20.10;;;11.00;;
25581;SDS011;13462;50.764;4.332;2024-01-30T10:52:29;18.77;;;11.15;;
25581;SDS011;13462;50.764;4.332;2024-01-30T10:54:57;23.92;;;9.82;;
25581;SDS011;13462;50.764;4.332;2024-01-30T10:57:24;23.10;;;9.68;;
25581;SDS011;13462;50.764;4.332;2024-01-30T11:00:00;18.13;;;9.93;;
25581;SDS011;13462;50.764;4.332;2024-01-30T11:02:30;15.93;;;8.85;;
25581;SDS011;13462;50.764;4.332;2024-01-30T11:04:57;15.45;;;7.78;;
25581;SDS011;13462;50.764;4.332;2024-01-30T11:07:25;15.05;;;7.43;;
25581;SDS011;13462;50.764;4.332;2024-01-30T11:09:52;13.82;;;6.15;;
25581;SDS011;13462;50.764;4.332;2024-01-30T11:12:22;14.93;;;6.05;;
25581;SDS011;13462;50.764;4.332;2024-01-30T11:14:50;14.95;;;6.07;;
25581;SDS011;13462;50.764;4.332;2024-01-30T11:20:21;5.20;;;2.30;;
25581;SDS011;13462;50.764;4.332;2024-01-30T11:22:51;12.30;;;3.65;;
25581;SDS011;13462;50.764;4.332;2024-01-30T11:25:21;5.20;;;2.13;;
25581;SDS011;13462;50.764;4.332;2024-01-30T11:27:49;3.38;;;2.13;;
25581;SDS011;13462;50.764;4.332;2024-01-30T11:35:33;5.43;;;1.77;;
25581;SDS011;13462;50.764;4.332;2024-01-30T11:38:10;4.25;;;1.40;;
25581;SDS011;13462;50.764;4.332;2024-01-30T11:40:38;7.35;;;1.75;;
25581;SDS011;13462;50.764;4.332;2024-01-30T11:43:05;6.47;;;2.42;;
25581;SDS011;13462;50.764;4.332;2024-01-30T11:45:31;4.10;;;1.48;;
25581;SDS011;13462;50.764;4.332;2024-01-30T11:47:58;6.13;;;1.88;;
25581;SDS011;13462;50.764;4.332;2024-01-30T11:50:35;8.55;;;1.70;;
25581;SDS011;13462;50.764;4.332;2024-01-30T11:53:03;3.25;;;1.85;;
25581;SDS011;13462;50.764;4.332;2024-01-30T11:55:29;3.15;;;2.13;;
25581;SDS011;13462;50.764;4.332;2024-01-30T11:57:56;1.90;;;1.58;;
25581;SDS011;13462;50.764;4.332;2024-01-30T12:00:22;3.25;;;0.95;;
25581;SDS011;13462;50.764;4.332;2024-01-30T12:02:51;4.57;;;1.33;;
25581;SDS011;13462;50.764;4.332;2024-01-30T12:05:27;5.47;;;1.30;;
25581;SDS011;13462;50.764;4.332;2024-01-30T12:07:53;4.35;;;1.35;;
25581;SDS011;13462;50.764;4.332;2024-01-30T12:10:19;1.48;;;0.75;;
25581;SDS011;13462;50.764;4.332;2024-01-30T12:12:47;5.45;;;1.15;;
25581;SDS011;13462;50.764;4.332;2024-01-30T12:15:15;0.93;;;0.70;;
25581;SDS011;13462;50.764;4.332;2024-01-30T12:17:41;2.20;;;0.80;;
25581;SDS011;13462;50.764;4.332;2024-01-30T12:20:10;2.72;;;0.95;;
25581;SDS011;13462;50.764;4.332;2024-01-30T12:22:44;2.17;;;1.20;;
25581;SDS011;13462;50.764;4.332;2024-01-30T12:25:12;1.92;;;1.10;;
25581;SDS011;13462;50.764;4.332;2024-01-30T12:27:39;2.97;;;1.52;;
25581;SDS011;13462;50.764;4.332;2024-01-30T12:30:08;2.85;;;1.20;;
25581;SDS011;13462;50.764;4.332;2024-01-30T12:32:39;1.10;;;1.00;;
25581;SDS011;13462;50.764;4.332;2024-01-30T12:35:12;1.23;;;0.90;;
25581;SDS011;13462;50.764;4.332;2024-01-30T12:37:45;8.18;;;1.42;;
25581;SDS011;13462;50.764;4.332;2024-01-30T12:40:13;0.85;;;0.85;;
25581;SDS011;13462;50.764;4.332;2024-01-30T12:42:40;1.55;;;0.70;;
25581;SDS011;13462;50.764;4.332;2024-01-30T12:45:07;4.18;;;1.10;;
25581;SDS011;13462;50.764;4.332;2024-01-30T12:47:33;1.80;;;1.00;;
25581;SDS011;13462;50.764;4.332;2024-01-30T12:49:59;1.20;;;0.80;;
25581;SDS011;13462;50.764;4.332;2024-01-30T12:52:25;2.92;;;0.77;;
25581;SDS011;13462;50.764;4.332;2024-01-30T12:54:51;0.93;;;0.77;;
25581;SDS011;13462;50.764;4.332;2024-01-30T12:57:17;3.45;;;1.10;;
25581;SDS011;13462;50.764;4.332;2024-01-30T12:59:44;4.18;;;0.90;;
25581;SDS011;13462;50.764;4.332;2024-01-30T13:02:12;4.75;;;0.90;;
25581;SDS011;13462;50.764;4.332;2024-01-30T13:04:38;4.53;;;1.40;;
25581;SDS011;13462;50.764;4.332;2024-01-30T13:07:04;0.98;;;0.80;;
25581;SDS011;13462;50.764;4.332;2024-01-30T13:09:30;3.75;;;1.20;;
25581;SDS011;13462;50.764;4.332;2024-01-30T13:11:56;2.75;;;0.90;;
25581;SDS011;13462;50.764;4.332;2024-01-30T13:14:22;4.53;;;1.00;;
25581;SDS011;13462;50.764;4.332;2024-01-30T13:16:48;4.10;;;1.13;;
25581;SDS011;13462;50.764;4.332;2024-01-30T13:19:14;3.08;;;0.90;;
25581;SDS011;13462;50.764;4.332;2024-01-30T13:21:40;2.67;;;1.23;;
25581;SDS011;13462;50.764;4.332;2024-01-30T13:24:05;2.70;;;0.90;;
25581;SDS011;13462;50.764;4.332;2024-01-30T13:26:32;3.35;;;1.10;;
25581;SDS011;13462;50.764;4.332;2024-01-30T13:28:59;3.83;;;1.20;;
25581;SDS011;13462;50.764;4.332;2024-01-30T13:31:24;7.03;;;1.25;;
25581;SDS011;13462;50.764;4.332;2024-01-30T13:33:50;2.60;;;1.10;;
25581;SDS011;13462;50.764;4.332;2024-01-30T13:36:16;4.82;;;1.52;;
25581;SDS011;13462;50.764;4.332;2024-01-30T13:38:41;4.47;;;1.75;;
25581;SDS011;13462;50.764;4.332;2024-01-30T13:41:07;2.05;;;0.98;;
25581;SDS011;13462;50.764;4.332;2024-01-30T13:43:33;3.85;;;1.17;;
25581;SDS011;13462;50.764;4.332;2024-01-30T13:45:58;4.00;;;1.27;;
25581;SDS011;13462;50.764;4.332;2024-01-30T13:48:24;4.55;;;1.25;;
25581;SDS011;13462;50.764;4.332;2024-01-30T13:50:50;5.63;;;1.67;;
25581;SDS011;13462;50.764;4.332;2024-01-30T13:53:16;5.47;;;1.55;;
25581;SDS011;13462;50.764;4.332;2024-01-30T13:55:41;4.07;;;1.38;;
25581;SDS011;13462;50.764;4.332;2024-01-30T13:58:07;2.97;;;1.15;;
25581;SDS011;13462;50.764;4.332;2024-01-30T14:00:33;6.55;;;1.40;;
25581;SDS011;13462;50.764;4.332;2024-01-30T14:02:59;6.43;;;1.00;;
25581;SDS011;13462;50.764;4.332;2024-01-30T14:05:25;4.70;;;1.08;;
25581;SDS011;13462;50.764;4.332;2024-01-30T14:07:53;3.80;;;1.10;;
25581;SDS011;13462;50.764;4.332;2024-01-30T14:10:18;7.30;;;1.30;;
25581;SDS011;13462;50.764;4.332;2024-01-30T14:12:45;3.13;;;1.15;;
25581;SDS011;13462;50.764;4.332;2024-01-30T14:15:12;5.18;;;0.90;;
25581;SDS011;13462;50.764;4.332;2024-01-30T14:17:48;4.95;;;1.27;;
25581;SDS011;13462;50.764;4.332;2024-01-30T14:20:14;2.88;;;1.10;;
25581;SDS011;13462;50.764;4.332;2024-01-30T14:22:43;6.28;;;1.02;;
25581;SDS011;13462;50.764;4.332;2024-01-30T14:25:09;5.28;;;1.40;;
25581;SDS011;13462;50.764;4.332;2024-01-30T14:27:35;3.65;;;1.10;;
25581;SDS011;13462;50.764;4.332;2024-01-30T14:30:01;6.47;;;1.63;;
25581;SDS011;13462;50.764;4.332;2024-01-30T14:32:28;3.45;;;1.52;;
25581;SDS011;13462;50.764;4.332;2024-01-30T14:34:54;7.20;;;1.20;;
25581;SDS011;13462;50.764;4.332;2024-01-30T14:37:20;2.78;;;0.90;;
25581;SDS011;13462;50.764;4.332;2024-01-30T14:39:46;3.80;;;1.20;;
25581;SDS011;13462;50.764;4.332;2024-01-30T14:42:13;5.03;;;1.48;;
25581;SDS011;13462;50.764;4.332;2024-01-30T14:44:38;4.68;;;1.35;;